createdAt,value
2018-04-14T00:00:06.958Z,0
2018-04-14T00:00:47.234Z,0
2018-04-14T00:01:27.585Z,0
2018-04-14T00:02:07.949Z,0
2018-04-14T00:02:48.378Z,0
2018-04-14T00:03:28.754Z,0
2018-04-14T00:04:09.184Z,0
2018-04-14T00:04:49.570Z,0
2018-04-14T00:05:29.892Z,0
2018-04-14T00:06:10.286Z,0
2018-04-14T00:06:50.663Z,0
2018-04-14T00:07:31.081Z,0
2018-04-14T00:08:11.483Z,0
2018-04-14T00:08:51.866Z,0
2018-04-14T00:09:32.294Z,0
2018-04-14T00:10:12.656Z,0
2018-04-14T00:10:53.086Z,0
2018-04-14T00:11:33.438Z,0
2018-04-14T00:12:13.841Z,0
2018-04-14T00:12:54.265Z,0
2018-04-14T00:13:34.682Z,0
2018-04-14T00:14:15.043Z,0
2018-04-14T00:14:55.497Z,0
2018-04-14T00:15:35.827Z,0
2018-04-14T00:16:16.207Z,0
2018-04-14T00:16:56.670Z,0
2018-04-14T00:17:36.978Z,0
2018-04-14T00:18:17.398Z,0
2018-04-14T00:18:57.848Z,0
2018-04-14T00:19:38.282Z,0
2018-04-14T00:20:18.710Z,0
2018-04-14T00:20:59.087Z,0
2018-04-14T00:21:39.563Z,0
2018-04-14T00:22:19.928Z,0
2018-04-14T00:23:00.283Z,0
2018-04-14T00:23:40.695Z,0
2018-04-14T00:24:21.159Z,0
2018-04-14T00:25:01.493Z,0
2018-04-14T00:25:41.914Z,0
2018-04-14T00:26:22.279Z,0
2018-04-14T00:27:02.737Z,0
2018-04-14T00:27:43.035Z,0
2018-04-14T00:28:23.480Z,0
2018-04-14T00:29:03.822Z,0
2018-04-14T00:29:44.230Z,0
2018-04-14T00:30:24.683Z,0
2018-04-14T00:31:05.006Z,0
2018-04-14T00:31:45.378Z,0
2018-04-14T00:32:25.842Z,0
2018-04-14T00:33:06.223Z,0
2018-04-14T00:33:46.607Z,0
2018-04-14T00:34:26.975Z,0
2018-04-14T00:35:07.388Z,0
2018-04-14T00:35:47.838Z,0
2018-04-14T00:36:28.182Z,0
2018-04-14T00:37:08.537Z,0
2018-04-14T00:37:48.948Z,0
2018-04-14T00:38:29.385Z,0
2018-04-14T00:39:09.752Z,0
2018-04-14T00:39:50.092Z,0
2018-04-14T00:40:30.523Z,0
2018-04-14T00:41:10.906Z,0
2018-04-14T00:41:51.379Z,0
2018-04-14T00:42:31.701Z,0
2018-04-14T00:43:12.138Z,0
2018-04-14T00:43:52.504Z,0
2018-04-14T00:44:32.903Z,0
2018-04-14T00:45:13.282Z,0
2018-04-14T00:45:53.683Z,0
2018-04-14T00:46:34.166Z,0
2018-04-14T00:47:14.484Z,0
2018-04-14T00:47:54.866Z,0
2018-04-14T00:48:35.293Z,0
2018-04-14T00:49:15.690Z,0
2018-04-14T00:49:56.177Z,0
2018-04-14T00:50:36.489Z,0
2018-04-14T00:51:16.922Z,0
2018-04-14T00:51:57.231Z,0
2018-04-14T00:52:37.658Z,0
2018-04-14T00:53:18.029Z,0
2018-04-14T00:53:58.437Z,0
2018-04-14T00:54:38.850Z,0
2018-04-14T00:55:19.220Z,0
2018-04-14T00:55:59.613Z,0
2018-04-14T00:56:40.063Z,0
2018-04-14T00:57:20.449Z,0
2018-04-14T00:58:00.839Z,0
2018-04-14T00:58:41.201Z,0
2018-04-14T00:59:21.722Z,0
2018-04-14T01:00:02.067Z,0
2018-04-14T01:00:42.450Z,0
2018-04-14T01:01:22.866Z,0
2018-04-14T01:02:03.222Z,0
2018-04-14T01:02:43.579Z,0
2018-04-14T01:03:23.956Z,0
2018-04-14T01:04:04.428Z,0
2018-04-14T01:04:44.791Z,0
2018-04-14T01:05:25.118Z,0
2018-04-14T01:06:05.580Z,0
2018-04-14T01:06:45.949Z,0
2018-04-14T01:07:26.346Z,0
2018-04-14T01:08:06.743Z,0
2018-04-14T01:08:47.100Z,0
2018-04-14T01:09:27.512Z,0
2018-04-14T01:10:07.907Z,0
2018-04-14T01:10:48.313Z,0
2018-04-14T01:11:28.724Z,0
2018-04-14T01:12:09.079Z,0
2018-04-14T01:12:50.118Z,0
2018-04-14T01:13:30.002Z,0
2018-04-14T01:14:10.407Z,0
2018-04-14T01:14:51.704Z,0
2018-04-14T01:15:31.783Z,0
2018-04-14T01:16:12.259Z,0
2018-04-14T01:16:52.593Z,0
2018-04-14T01:17:32.993Z,0
2018-04-14T01:18:13.538Z,0
2018-04-14T01:18:53.772Z,0
2018-04-14T01:19:34.211Z,0
2018-04-14T01:20:14.803Z,0
2018-04-14T01:20:55.147Z,0
2018-04-14T01:21:35.897Z,0
2018-04-14T01:22:15.963Z,0
2018-04-14T01:22:56.314Z,0
2018-04-14T01:23:36.687Z,0
2018-04-14T01:24:17.075Z,0
2018-04-14T01:24:57.509Z,0
2018-04-14T01:25:37.896Z,0
2018-04-14T01:26:18.326Z,0
2018-04-14T01:26:58.732Z,0
2018-04-14T01:27:39.094Z,0
2018-04-14T01:28:19.489Z,0
2018-04-14T01:28:59.915Z,0
2018-04-14T01:29:40.271Z,0
2018-04-14T01:30:20.708Z,0
2018-04-14T01:31:01.110Z,0
2018-04-14T01:31:41.503Z,0
2018-04-14T01:32:21.945Z,0
2018-04-14T01:33:02.235Z,0
2018-04-14T01:33:42.642Z,0
2018-04-14T01:34:23.083Z,0
2018-04-14T01:35:03.446Z,0
2018-04-14T01:35:43.886Z,0
2018-04-14T01:36:24.229Z,0
2018-04-14T01:37:04.681Z,0
2018-04-14T01:37:45.015Z,0
2018-04-14T01:38:25.379Z,0
2018-04-14T01:39:05.825Z,0
2018-04-14T01:39:46.254Z,0
2018-04-14T01:40:26.584Z,0
2018-04-14T01:41:06.989Z,0
2018-04-14T01:41:47.364Z,0
2018-04-14T01:42:27.886Z,0
2018-04-14T01:43:08.171Z,0
2018-04-14T01:43:48.579Z,0
2018-04-14T01:44:29.012Z,0
2018-04-14T01:45:09.385Z,0
2018-04-14T01:45:49.756Z,0
2018-04-14T01:46:30.197Z,0
2018-04-14T01:47:10.546Z,0
2018-04-14T01:47:50.937Z,0
2018-04-14T01:48:31.331Z,0
2018-04-14T01:49:11.702Z,0
2018-04-14T01:49:52.102Z,0
2018-04-14T01:50:32.575Z,0
2018-04-14T01:51:12.949Z,0
2018-04-14T01:51:53.259Z,0
2018-04-14T01:52:33.633Z,0
2018-04-14T01:53:14.126Z,0
2018-04-14T01:53:54.473Z,0
2018-04-14T01:54:34.800Z,0
2018-04-14T01:55:15.259Z,0
2018-04-14T01:55:55.640Z,0
2018-04-14T01:56:35.993Z,0
2018-04-14T01:57:16.398Z,0
2018-04-14T01:57:56.754Z,0
2018-04-14T01:58:37.131Z,0
2018-04-14T01:59:17.644Z,0
2018-04-14T01:59:57.976Z,0
2018-04-14T02:00:38.373Z,0
2018-04-14T02:01:18.739Z,0
2018-04-14T02:01:59.108Z,0
2018-04-14T02:02:39.577Z,0
2018-04-14T02:03:19.874Z,0
2018-04-14T02:04:00.299Z,0
2018-04-14T02:04:40.736Z,0
2018-04-14T02:05:21.090Z,0
2018-04-14T02:06:01.464Z,0
2018-04-14T02:06:41.892Z,0
2018-04-14T02:07:22.240Z,0
2018-04-14T02:08:02.644Z,0
2018-04-14T02:08:43.047Z,0
2018-04-14T02:09:23.450Z,0
2018-04-14T02:10:03.848Z,0
2018-04-14T02:10:44.256Z,0
2018-04-14T02:11:24.640Z,0
2018-04-14T02:12:05.123Z,0
2018-04-14T02:12:45.502Z,0
2018-04-14T02:13:25.876Z,0
2018-04-14T02:14:06.300Z,0
2018-04-14T02:14:46.744Z,0
2018-04-14T02:15:27.084Z,0
2018-04-14T02:16:07.489Z,0
2018-04-14T02:16:47.920Z,0
2018-04-14T02:17:28.334Z,0
2018-04-14T02:18:08.747Z,0
2018-04-14T02:18:49.099Z,0
2018-04-14T02:19:29.519Z,0
2018-04-14T02:20:09.896Z,0
2018-04-14T02:20:50.333Z,0
2018-04-14T02:21:30.758Z,0
2018-04-14T02:22:11.113Z,0
2018-04-14T02:22:51.533Z,0
2018-04-14T02:23:31.975Z,0
2018-04-14T02:24:12.376Z,0
2018-04-14T02:24:52.774Z,0
2018-04-14T02:25:33.222Z,0
2018-04-14T02:26:13.585Z,0
2018-04-14T02:26:54.002Z,0
2018-04-14T02:27:34.397Z,0
2018-04-14T02:28:14.780Z,0
2018-04-14T02:28:55.267Z,0
2018-04-14T02:29:35.597Z,0
2018-04-14T02:30:16.012Z,0
2018-04-14T02:30:56.506Z,0
2018-04-14T02:31:36.808Z,0
2018-04-14T02:32:17.255Z,0
2018-04-14T02:32:57.567Z,0
2018-04-14T02:33:37.953Z,0
2018-04-14T02:34:18.405Z,0
2018-04-14T02:34:58.734Z,0
2018-04-14T02:35:39.179Z,0
2018-04-14T02:36:19.512Z,0
2018-04-14T02:36:59.896Z,0
2018-04-14T02:37:40.347Z,0
2018-04-14T02:38:20.752Z,0
2018-04-14T02:39:01.087Z,0
2018-04-14T02:39:41.541Z,0
2018-04-14T02:40:21.881Z,0
2018-04-14T02:41:02.300Z,0
2018-04-14T02:41:42.678Z,0
2018-04-14T02:42:23.055Z,0
2018-04-14T02:43:03.473Z,0
2018-04-14T02:43:43.798Z,0
2018-04-14T02:44:24.211Z,0
2018-04-14T02:45:04.661Z,0
2018-04-14T02:45:45.001Z,0
2018-04-14T02:46:25.468Z,0
2018-04-14T02:47:05.805Z,0
2018-04-14T02:47:46.181Z,0
2018-04-14T02:48:26.656Z,0
2018-04-14T02:49:07.021Z,0
2018-04-14T02:49:47.368Z,0
2018-04-14T02:50:27.797Z,0
2018-04-14T02:51:08.125Z,0
2018-04-14T02:51:48.531Z,0
2018-04-14T02:52:28.941Z,0
2018-04-14T02:53:09.371Z,0
2018-04-14T02:53:49.754Z,0
2018-04-14T02:54:30.176Z,0
2018-04-14T02:55:10.501Z,0
2018-04-14T02:55:50.940Z,0
2018-04-14T02:56:31.330Z,0
2018-04-14T02:57:11.684Z,0
2018-04-14T02:57:52.144Z,0
2018-04-14T02:58:32.563Z,0
2018-04-14T02:59:12.975Z,0
2018-04-14T02:59:53.336Z,0
2018-04-14T03:00:33.756Z,0
2018-04-14T03:01:14.213Z,0
2018-04-14T03:01:54.502Z,0
2018-04-14T03:02:34.942Z,0
2018-04-14T03:03:15.356Z,0
2018-04-14T03:03:55.811Z,0
2018-04-14T03:04:36.162Z,0
2018-04-14T03:05:16.534Z,0
2018-04-14T03:05:56.929Z,0
2018-04-14T03:06:37.304Z,0
2018-04-14T03:07:17.770Z,0
2018-04-14T03:07:58.135Z,0
2018-04-14T03:08:38.518Z,0
2018-04-14T03:09:18.919Z,0
2018-04-14T03:09:59.332Z,0
2018-04-14T03:10:39.719Z,0
2018-04-14T03:11:20.125Z,0
2018-04-14T03:12:00.487Z,0
2018-04-14T03:12:40.861Z,0
2018-04-14T03:13:21.255Z,0
2018-04-14T03:14:01.706Z,0
2018-04-14T03:14:42.074Z,0
2018-04-14T03:15:22.490Z,0
2018-04-14T03:16:02.917Z,0
2018-04-14T03:16:43.270Z,0
2018-04-14T03:17:23.699Z,0
2018-04-14T03:18:04.113Z,0
2018-04-14T03:18:44.489Z,0
2018-04-14T03:19:24.846Z,0
2018-04-14T03:20:05.210Z,0
2018-04-14T03:20:45.645Z,0
2018-04-14T03:21:25.995Z,0
2018-04-14T03:22:06.429Z,0
2018-04-14T03:22:46.836Z,0
2018-04-14T03:23:27.249Z,0
2018-04-14T03:24:07.590Z,0
2018-04-14T03:24:48.031Z,0
2018-04-14T03:25:28.368Z,0
2018-04-14T03:26:08.787Z,0
2018-04-14T03:26:49.190Z,0
2018-04-14T03:27:29.580Z,0
2018-04-14T03:28:10.015Z,0
2018-04-14T03:28:50.376Z,0
2018-04-14T03:29:30.773Z,0
2018-04-14T03:30:11.249Z,0
2018-04-14T03:30:51.653Z,0
2018-04-14T03:31:31.964Z,0
2018-04-14T03:32:12.413Z,0
2018-04-14T03:32:52.802Z,0
2018-04-14T03:33:33.137Z,0
2018-04-14T03:34:13.543Z,0
2018-04-14T03:34:53.913Z,0
2018-04-14T03:35:34.368Z,0
2018-04-14T03:36:14.722Z,0
2018-04-14T03:36:55.161Z,0
2018-04-14T03:37:35.570Z,0
2018-04-14T03:38:15.916Z,0
2018-04-14T03:38:56.300Z,0
2018-04-14T03:39:36.702Z,0
2018-04-14T03:40:17.074Z,0
2018-04-14T03:40:57.450Z,0
2018-04-14T03:41:37.874Z,0
2018-04-14T03:42:18.272Z,0
2018-04-14T03:42:58.649Z,0
2018-04-14T03:43:39.099Z,0
2018-04-14T03:44:19.445Z,0
2018-04-14T03:44:59.865Z,0
2018-04-14T03:45:40.197Z,0
2018-04-14T03:46:20.600Z,0
2018-04-14T03:47:00.993Z,0
2018-04-14T03:47:41.376Z,0
2018-04-14T03:48:21.807Z,0
2018-04-14T03:49:02.200Z,0
2018-04-14T03:49:42.629Z,0
2018-04-14T03:50:23.016Z,0
2018-04-14T03:51:03.398Z,0
2018-04-14T03:51:43.790Z,0
2018-04-14T03:52:24.164Z,0
2018-04-14T03:53:04.558Z,0
2018-04-14T03:53:44.953Z,0
2018-04-14T03:54:25.355Z,0
2018-04-14T03:55:05.793Z,0
2018-04-14T03:55:46.148Z,0
2018-04-14T03:56:26.560Z,0
2018-04-14T03:57:06.917Z,0
2018-04-14T03:57:47.318Z,0
2018-04-14T03:58:27.745Z,0
2018-04-14T03:59:08.115Z,0
2018-04-14T03:59:48.581Z,0
2018-04-14T04:00:28.911Z,0
2018-04-14T04:01:09.343Z,0
2018-04-14T04:44:53.521Z,0
2018-04-14T04:45:33.933Z,0
2018-04-14T04:46:14.300Z,0
2018-04-14T04:46:54.699Z,0
2018-04-14T04:47:35.072Z,5
2018-04-14T04:48:15.455Z,5
2018-04-14T04:48:55.895Z,5
2018-04-14T04:49:36.254Z,5
2018-04-14T04:50:16.632Z,5
2018-04-14T04:50:57.060Z,5
2018-04-14T04:51:37.455Z,5
2018-04-14T04:52:17.812Z,5
2018-04-14T04:52:58.234Z,5
2018-04-14T04:53:38.611Z,5
2018-04-14T04:54:19.025Z,5
2018-04-14T04:54:59.392Z,5
2018-04-14T04:55:39.800Z,5
2018-04-14T04:56:20.232Z,10
2018-04-14T04:57:00.519Z,10
2018-04-14T04:59:38.361Z,10
2018-04-14T05:00:18.741Z,10
2018-04-14T05:00:59.201Z,10
2018-04-14T05:01:39.614Z,10
2018-04-14T05:02:19.982Z,15
2018-04-14T05:03:00.364Z,15
2018-04-14T05:03:40.792Z,15
2018-04-14T05:04:21.131Z,15
2018-04-14T05:05:01.544Z,15
2018-04-14T05:05:41.944Z,15
2018-04-14T05:06:22.399Z,15
2018-04-14T05:07:02.702Z,15
2018-04-14T05:07:43.109Z,15
2018-04-14T05:08:23.534Z,15
2018-04-14T05:09:03.925Z,15
2018-04-14T05:09:44.304Z,15
2018-04-14T05:10:24.674Z,15
2018-04-14T05:11:05.239Z,15
2018-04-14T05:11:45.536Z,15
2018-04-14T05:12:26.181Z,15
2018-04-14T05:13:06.422Z,15
2018-04-14T05:13:47.085Z,15
2018-04-14T05:14:27.208Z,15
2018-04-14T05:15:07.572Z,15
2018-04-14T05:15:48.035Z,15
2018-04-14T05:16:28.345Z,15
2018-04-14T05:17:08.738Z,15
2018-04-14T05:17:49.122Z,20
2018-04-14T05:18:29.553Z,20
2018-04-14T05:19:09.897Z,20
2018-04-14T05:19:50.321Z,15
2018-04-14T05:20:30.745Z,20
2018-04-14T05:21:11.095Z,25
2018-04-14T05:21:51.565Z,25
2018-04-14T05:22:31.885Z,25
2018-04-14T05:23:12.323Z,20
2018-04-14T05:23:52.784Z,25
2018-04-14T05:24:33.101Z,30
2018-04-14T05:25:13.440Z,15
2018-04-14T05:25:53.825Z,10
2018-04-14T05:26:34.214Z,10
2018-04-14T05:27:14.671Z,10
2018-04-14T05:27:55.043Z,10
2018-04-14T05:28:35.375Z,10
2018-04-14T05:29:15.769Z,15
2018-04-14T05:29:56.134Z,20
2018-04-14T05:30:36.521Z,10
2018-04-14T05:31:16.920Z,10
2018-04-14T05:31:57.354Z,10
2018-04-14T05:32:37.743Z,10
2018-04-14T05:33:18.188Z,10
2018-04-14T05:33:58.494Z,10
2018-04-14T05:34:38.936Z,10
2018-04-14T05:35:19.317Z,10
2018-04-14T05:35:59.752Z,10
2018-04-14T05:36:40.141Z,10
2018-04-14T05:37:20.475Z,15
2018-04-14T05:38:00.864Z,15
2018-04-14T05:38:41.217Z,15
2018-04-14T05:39:21.641Z,15
2018-04-14T05:40:02.075Z,20
2018-04-14T05:40:42.455Z,20
2018-04-14T05:41:22.815Z,20
2018-04-14T05:42:03.238Z,20
2018-04-14T05:42:43.633Z,20
2018-04-14T05:43:24.105Z,20
2018-04-14T05:44:04.384Z,20
2018-04-14T05:44:44.819Z,20
2018-04-14T05:45:25.182Z,20
2018-04-14T05:46:05.642Z,25
2018-04-14T05:46:46.020Z,25
2018-04-14T05:47:26.381Z,25
2018-04-14T05:48:06.807Z,30
2018-04-14T05:48:47.212Z,30
2018-04-14T05:49:27.611Z,25
2018-04-14T05:50:07.995Z,25
2018-04-14T05:50:48.455Z,25
2018-04-14T05:51:28.803Z,30
2018-04-14T05:52:09.201Z,30
2018-04-14T05:52:49.682Z,30
2018-04-14T05:53:30.013Z,30
2018-04-14T05:54:10.422Z,30
2018-04-14T05:54:50.838Z,30
2018-04-14T05:55:31.260Z,30
2018-04-14T05:56:11.596Z,30
2018-04-14T05:56:52.026Z,30
2018-04-14T05:57:32.439Z,30
2018-04-14T05:58:12.818Z,35
2018-04-14T05:58:53.154Z,40
2018-04-14T05:59:33.550Z,45
2018-04-14T06:00:13.972Z,50
2018-04-14T06:00:54.364Z,70
2018-04-14T06:01:34.726Z,75
2018-04-14T06:02:15.090Z,115
2018-04-14T06:02:55.547Z,85
2018-04-14T06:03:35.889Z,80
2018-04-14T06:04:16.268Z,85
2018-04-14T06:04:56.673Z,230
2018-04-14T06:05:37.062Z,125
2018-04-14T06:06:17.485Z,275
2018-04-14T06:06:57.908Z,315
2018-04-14T06:07:38.313Z,325
2018-04-14T06:08:18.700Z,350
2018-04-14T06:08:59.068Z,350
2018-04-14T06:09:39.525Z,340
2018-04-14T06:10:19.924Z,340
2018-04-14T06:11:00.325Z,375
2018-04-14T06:11:40.961Z,380
2018-04-14T06:12:21.117Z,395
2018-04-14T06:13:01.459Z,410
2018-04-14T06:13:41.861Z,415
2018-04-14T06:14:22.228Z,405
2018-04-14T06:15:02.664Z,395
2018-04-14T06:15:43.042Z,375
2018-04-14T06:16:23.458Z,375
2018-04-14T06:17:03.858Z,385
2018-04-14T06:17:44.274Z,390
2018-04-14T06:18:24.617Z,400
2018-04-14T06:19:05.037Z,420
2018-04-14T06:19:45.414Z,415
2018-04-14T06:20:25.774Z,420
2018-04-14T06:21:06.212Z,420
2018-04-14T06:21:46.552Z,420
2018-04-14T06:22:26.958Z,425
2018-04-14T06:23:07.440Z,420
2018-04-14T06:23:47.784Z,420
2018-04-14T06:24:28.190Z,425
2018-04-14T06:25:08.587Z,415
2018-04-14T06:27:26.179Z,415
2018-04-14T06:28:06.568Z,425
2018-04-14T06:28:47.021Z,435
2018-04-14T06:29:27.416Z,445
2018-04-14T06:30:07.789Z,440
2018-04-14T06:30:48.136Z,440
2018-04-14T06:31:28.546Z,445
2018-04-14T06:32:08.944Z,435
2018-04-14T06:32:49.391Z,435
2018-04-14T06:33:29.732Z,455
2018-04-14T06:34:10.157Z,460
2018-04-14T06:34:50.534Z,495
2018-04-14T06:35:30.902Z,505
2018-04-14T06:36:11.316Z,520
2018-04-14T06:36:51.735Z,525
2018-04-14T06:37:32.131Z,530
2018-04-14T06:38:12.524Z,515
2018-04-14T06:38:52.984Z,530
2018-04-14T06:39:33.365Z,535
2018-04-14T06:40:13.722Z,545
2018-04-14T06:40:54.173Z,555
2018-04-14T06:41:34.524Z,555
2018-04-14T06:42:14.954Z,560
2018-04-14T06:42:55.305Z,565
2018-04-14T06:43:35.721Z,555
2018-04-14T06:44:16.148Z,570
2018-04-14T06:44:56.563Z,560
2018-04-14T06:45:36.937Z,565
2018-04-14T06:46:17.324Z,570
2018-04-14T06:46:57.775Z,590
2018-04-14T06:47:38.143Z,605
2018-04-14T06:48:18.569Z,610
2018-04-14T06:48:58.966Z,625
2018-04-14T06:49:39.449Z,640
2018-04-14T06:50:19.861Z,645
2018-04-14T06:51:00.255Z,635
2018-04-14T06:51:40.678Z,630
2018-04-14T06:52:21.133Z,620
2018-04-14T06:53:01.453Z,550
2018-04-14T06:53:41.874Z,420
2018-04-14T06:54:22.264Z,315
2018-04-14T06:55:02.650Z,285
2018-04-14T06:55:43.090Z,280
2018-04-14T06:56:23.531Z,280
2018-04-14T06:57:03.945Z,270
2018-04-14T06:57:44.283Z,270
2018-04-14T06:58:24.714Z,270
2018-04-14T06:59:05.105Z,270
2018-04-14T06:59:45.513Z,275
2018-04-14T07:00:25.927Z,270
2018-04-14T07:01:06.352Z,275
2018-04-14T07:01:46.729Z,275
2018-04-14T07:02:27.132Z,270
2018-04-14T07:03:07.561Z,270
2018-04-14T07:03:47.919Z,270
2018-04-14T07:04:28.349Z,270
2018-04-14T07:05:08.770Z,270
2018-04-14T07:05:49.120Z,270
2018-04-14T07:06:29.537Z,270
2018-04-14T07:07:09.937Z,270
2018-04-14T07:07:50.366Z,275
2018-04-14T07:08:30.754Z,275
2018-04-14T07:09:11.157Z,275
2018-04-14T07:09:51.556Z,275
2018-04-14T07:10:31.984Z,275
2018-04-14T07:11:12.477Z,280
2018-04-14T07:11:52.951Z,285
2018-04-14T07:12:33.330Z,290
2018-04-14T07:13:13.750Z,290
2018-04-14T07:13:54.201Z,295
2018-04-14T07:14:34.551Z,295
2018-04-14T07:15:14.939Z,295
2018-04-14T07:15:55.321Z,300
2018-04-14T07:16:35.717Z,295
2018-04-14T07:17:16.161Z,295
2018-04-14T07:17:56.514Z,300
2018-04-14T07:18:36.941Z,300
2018-04-14T07:19:17.363Z,305
2018-04-14T07:19:57.840Z,310
2018-04-14T07:20:38.473Z,305
2018-04-14T07:21:18.827Z,305
2018-04-14T07:21:59.432Z,300
2018-04-14T07:22:39.648Z,295
2018-04-14T07:23:20.061Z,290
2018-04-14T07:24:00.501Z,280
2018-04-14T07:24:40.882Z,275
2018-04-14T07:25:21.332Z,265
2018-04-14T07:26:01.716Z,265
2018-04-14T07:26:42.153Z,260
2018-04-14T07:27:22.495Z,250
2018-04-14T07:28:02.929Z,250
2018-04-14T07:28:43.359Z,245
2018-04-14T07:29:23.778Z,245
2018-04-14T07:30:04.220Z,240
2018-04-14T07:30:44.607Z,235
2018-04-14T07:31:25.140Z,235
2018-04-14T07:32:05.489Z,230
2018-04-14T07:32:45.854Z,225
2018-04-14T07:33:26.200Z,220
2018-04-14T07:34:06.660Z,215
2018-04-14T07:34:47.039Z,215
2018-04-14T07:35:27.459Z,215
2018-04-14T07:36:07.875Z,210
2018-04-14T07:36:48.232Z,210
2018-04-14T07:37:28.667Z,210
2018-04-14T07:38:09.092Z,205
2018-04-14T07:38:49.463Z,205
2018-04-14T07:39:29.924Z,200
2018-04-14T07:40:10.355Z,200
2018-04-14T07:42:48.421Z,195
2018-04-14T07:43:28.779Z,190
2018-04-14T07:44:09.498Z,190
2018-04-14T07:44:49.856Z,190
2018-04-14T07:45:30.211Z,185
2018-04-14T07:46:10.845Z,190
2018-04-14T07:46:51.219Z,185
2018-04-14T07:47:31.726Z,185
2018-04-14T07:48:12.155Z,185
2018-04-14T07:48:52.579Z,185
2018-04-14T07:49:32.986Z,185
2018-04-14T07:50:13.496Z,185
2018-04-14T07:50:53.852Z,185
2018-04-14T07:51:34.307Z,180
2018-04-14T07:52:16.438Z,180
2018-04-14T07:52:56.875Z,180
2018-04-14T07:53:37.425Z,180
2018-04-14T07:54:17.766Z,175
2018-04-14T07:54:58.164Z,180
2018-04-14T07:55:38.625Z,180
2018-04-14T07:56:19.028Z,180
2018-04-14T07:56:59.396Z,175
2018-04-14T07:57:39.869Z,175
2018-04-14T07:58:20.178Z,175
2018-04-14T07:59:00.595Z,170
2018-04-14T07:59:41.005Z,170
2018-04-14T08:00:21.343Z,170
2018-04-14T08:01:01.759Z,165
2018-04-14T08:01:42.175Z,160
2018-04-14T08:02:22.570Z,160
2018-04-14T08:03:03.058Z,160
2018-04-14T08:03:43.469Z,155
2018-04-14T08:04:23.956Z,155
2018-04-14T08:05:04.355Z,155
2018-04-14T08:05:44.719Z,155
2018-04-14T08:06:25.146Z,150
2018-04-14T08:07:05.648Z,150
2018-04-14T08:07:46.032Z,150
2018-04-14T08:08:26.416Z,150
2018-04-14T08:09:06.809Z,150
2018-04-14T08:09:47.265Z,145
2018-04-14T08:10:27.616Z,145
2018-04-14T08:11:08.065Z,145
2018-04-14T08:11:48.410Z,145
2018-04-14T08:12:28.809Z,145
2018-04-14T08:13:09.243Z,145
2018-04-14T08:13:49.614Z,140
2018-04-14T08:14:30.052Z,145
2018-04-14T08:15:10.423Z,145
2018-04-14T08:15:50.842Z,145
2018-04-14T08:16:31.232Z,145
2018-04-14T08:17:11.599Z,140
2018-04-14T08:17:52.068Z,140
2018-04-14T08:18:32.469Z,135
2018-04-14T08:19:12.818Z,130
2018-04-14T08:19:53.262Z,135
2018-04-14T08:20:33.604Z,135
2018-04-14T08:21:13.999Z,130
2018-04-14T08:21:54.510Z,130
2018-04-14T08:22:34.937Z,125
2018-04-14T08:23:15.654Z,135
2018-04-14T08:23:56.378Z,140
2018-04-14T08:24:37.651Z,140
2018-04-14T08:25:18.867Z,140
2018-04-14T08:25:59.193Z,140
2018-04-14T08:26:41.874Z,140
2018-04-14T08:27:22.860Z,140
2018-04-14T08:28:04.010Z,135
2018-04-14T08:28:43.712Z,135
2018-04-14T08:29:24.792Z,135
2018-04-14T08:30:04.820Z,135
2018-04-14T08:30:46.159Z,135
2018-04-14T08:31:26.276Z,135
2018-04-14T08:32:06.743Z,140
2018-04-14T08:32:48.662Z,135
2018-04-14T08:33:29.654Z,130
2018-04-14T08:34:09.639Z,130
2018-04-14T08:34:50.707Z,140
2018-04-14T08:35:31.093Z,130
2018-04-14T08:36:11.574Z,130
2018-04-14T08:36:52.252Z,130
2018-04-14T08:37:32.673Z,130
2018-04-14T08:38:13.102Z,130
2018-04-14T08:38:53.501Z,130
2018-04-14T08:39:34.043Z,130
2018-04-14T08:40:14.684Z,130
2018-04-14T08:40:55.385Z,130
2018-04-14T08:41:35.866Z,130
2018-04-14T08:42:16.468Z,130
2018-04-14T08:42:56.853Z,130
2018-04-14T08:43:37.792Z,130
2018-04-14T08:44:18.345Z,130
2018-04-14T08:44:59.083Z,130
2018-04-14T08:45:40.013Z,125
2018-04-14T08:46:20.717Z,120
2018-04-14T08:47:02.156Z,120
2018-04-14T08:47:42.146Z,120
2018-04-14T08:48:22.636Z,120
2018-04-14T08:49:03.060Z,115
2018-04-14T08:49:43.467Z,90
2018-04-14T08:50:23.902Z,90
2018-04-14T08:51:04.408Z,85
2018-04-14T08:51:45.022Z,85
2018-04-14T08:52:26.151Z,90
2018-04-14T08:53:07.162Z,70
2018-04-14T08:53:47.183Z,60
2018-04-14T08:54:27.374Z,60
2018-04-14T08:55:08.133Z,65
2018-04-14T08:55:49.660Z,75
2018-04-14T08:56:29.544Z,75
2018-04-14T08:57:09.999Z,75
2018-04-14T08:57:50.642Z,65
2018-04-14T08:58:31.398Z,70
2018-04-14T08:59:12.292Z,95
2018-04-14T08:59:52.864Z,105
2018-04-14T09:00:33.421Z,115
2018-04-14T09:01:13.805Z,115
2018-04-14T09:01:54.711Z,120
2018-04-14T09:02:35.050Z,120
2018-04-14T09:03:15.484Z,120
2018-04-14T09:03:55.914Z,120
2018-04-14T09:04:36.611Z,125
2018-04-14T09:05:17.685Z,130
2018-04-14T09:05:57.911Z,130
2018-04-14T09:06:38.365Z,130
2018-04-14T09:07:18.775Z,130
2018-04-14T09:08:00.167Z,130
2018-04-14T09:08:39.757Z,130
2018-04-14T09:09:20.556Z,125
2018-04-14T09:10:00.979Z,120
2018-04-14T09:10:41.867Z,125
2018-04-14T09:11:22.683Z,125
2018-04-14T09:12:02.798Z,125
2018-04-14T09:12:44.178Z,125
2018-04-14T09:13:23.985Z,125
2018-04-14T09:14:04.412Z,115
2018-04-14T09:14:44.842Z,105
2018-04-14T09:15:26.184Z,85
2018-04-14T09:16:06.362Z,65
2018-04-14T09:16:46.720Z,70
2018-04-14T09:17:27.947Z,100
2018-04-14T09:18:08.914Z,110
2018-04-14T09:18:49.338Z,110
2018-04-14T09:19:29.763Z,110
2018-04-14T09:20:10.476Z,110
2018-04-14T09:20:53.033Z,115
2018-04-14T09:21:33.891Z,115
2018-04-14T09:22:14.147Z,110
2018-04-14T09:22:55.065Z,90
2018-04-14T09:23:35.453Z,70
2018-04-14T09:24:15.963Z,60
2018-04-14T09:24:56.676Z,60
2018-04-14T09:25:37.367Z,60
2018-04-14T09:26:17.817Z,60
2018-04-14T09:26:58.821Z,65
2018-04-14T09:27:39.306Z,70
2018-04-14T09:28:20.492Z,70
2018-04-14T09:29:00.405Z,65
2018-04-14T09:29:40.956Z,65
2018-04-14T09:30:21.509Z,65
2018-04-14T09:31:02.008Z,75
2018-04-14T09:31:42.366Z,80
2018-04-14T09:32:23.680Z,90
2018-04-14T09:33:04.937Z,95
2018-04-14T09:33:44.276Z,95
2018-04-14T09:34:24.912Z,95
2018-04-14T09:35:05.557Z,90
2018-04-14T09:35:46.636Z,90
2018-04-14T09:36:27.321Z,90
2018-04-14T09:37:07.952Z,90
2018-04-14T09:37:48.651Z,85
2018-04-14T09:38:29.397Z,80
2018-04-14T09:39:09.729Z,80
2018-04-14T09:39:50.139Z,85
2018-04-14T09:40:30.565Z,85
2018-04-14T09:41:10.974Z,80
2018-04-14T09:41:51.373Z,80
2018-04-14T09:42:31.787Z,80
2018-04-14T09:43:12.272Z,70
2018-04-14T09:43:52.560Z,70
2018-04-14T09:44:33.094Z,70
2018-04-14T09:45:13.450Z,65
2018-04-14T09:45:53.898Z,65
2018-04-14T09:46:34.304Z,60
2018-04-14T09:47:14.708Z,60
2018-04-14T09:47:55.126Z,60
2018-04-14T09:48:35.538Z,60
2018-04-14T09:49:15.979Z,65
2018-04-14T09:49:56.332Z,60
2018-04-14T09:50:36.751Z,60
2018-04-14T09:51:17.136Z,55
2018-04-14T09:51:57.550Z,55
2018-04-14T09:52:37.965Z,55
2018-04-14T09:53:18.339Z,60
2018-04-14T09:53:58.720Z,60
2018-04-14T09:54:39.099Z,60
2018-04-14T09:55:19.500Z,70
2018-04-14T09:55:59.914Z,75
2018-04-14T09:56:40.336Z,75
2018-04-14T09:57:20.705Z,85
2018-04-14T09:58:01.158Z,90
2018-04-14T09:58:41.526Z,95
2018-04-14T09:59:21.933Z,95
2018-04-14T10:00:02.346Z,95
2018-04-14T10:00:42.719Z,85
2018-04-14T10:01:23.119Z,85
2018-04-14T10:02:03.543Z,90
2018-04-14T10:02:43.900Z,105
2018-04-14T10:47:32.719Z,80
2018-04-14T10:48:13.275Z,75
2018-04-14T10:48:54.528Z,75
2018-04-14T10:49:34.917Z,75
2018-04-14T10:50:15.318Z,75
2018-04-14T10:50:56.407Z,75
2018-04-14T10:51:36.840Z,75
2018-04-14T10:52:17.177Z,75
2018-04-14T10:52:57.628Z,75
2018-04-14T10:53:37.998Z,75
2018-04-14T10:54:18.367Z,75
2018-04-14T10:54:58.792Z,75
2018-04-14T10:55:39.203Z,75
2018-04-14T10:56:19.598Z,75
2018-04-14T10:56:59.995Z,65
2018-04-14T10:57:40.491Z,75
2018-04-14T10:58:20.832Z,75
2018-04-14T10:59:01.223Z,75
2018-04-14T10:59:41.628Z,75
2018-04-14T11:00:22.136Z,75
2018-04-14T11:01:02.514Z,75
2018-04-14T11:01:42.886Z,75
2018-04-14T11:02:23.300Z,75
2018-04-14T11:03:03.732Z,75
2018-04-14T11:03:44.135Z,75
2018-04-14T11:04:24.569Z,75
2018-04-14T11:05:04.962Z,75
2018-04-14T11:05:45.369Z,75
2018-04-14T11:06:25.789Z,75
2018-04-14T11:07:06.159Z,75
2018-04-14T11:07:47.198Z,75
2018-04-14T11:08:27.257Z,75
2018-04-14T11:09:07.741Z,75
2018-04-14T11:09:48.318Z,75
2018-04-14T11:10:28.673Z,75
2018-04-14T11:11:09.069Z,75
2018-04-14T11:11:49.404Z,75